Flight Track Log - Related Links

Times and Time Zones

All times are in EDT time to prevent confusion due to time zone crossing. See the SKW6492 flight status page for this flight to view local times or setup timezone preferences in your user account.

Time Position Orientation Groundspeed Altitude Reporting Facility
EDT Latitude Longitude Course Direction KTS MPH feet Rate Location/Type
Mon 04:27:00 PM 30.4080 -97.6406 291° West  Level FlightAware Approximate
Mon 04:27:53 PM 30.1456 -97.8069 283° West 269 310 8,700  Level Houston Center
Mon 04:28:00 PM 30.4510 -97.7652 293° West  Level FlightAware Approximate
Mon 04:28:55 PM 30.2011 -97.8764 313° West 287 330 11,400  Level Houston Center
Mon 04:29:00 PM 30.4960 -97.8890 293° West  Level FlightAware Approximate
Mon 04:30:00 PM 30.5382 -98.0142 291° West  Level FlightAware Approximate
Mon 04:30:00 PM 30.3118 -97.9447 332° Northwest  Level Estimated
Mon 04:31:00 PM 30.5800 -98.1396 291° West  Level FlightAware Approximate
Mon 04:32:00 PM 30.6217 -98.2651 291° West  Level FlightAware Approximate
Mon 04:32:02 PM 30.3847 -98.1525 332° Northwest 384 442 14,300  Level Houston Center
Mon 04:33:00 PM 30.6585 -98.3924 283° West  Level FlightAware Approximate
Mon 04:33:04 PM 30.4047 -98.2589 282° West 338 389 15,000  Level Houston Center
Mon 04:34:06 PM 30.4183 -98.3828 277° West 328 377 15,000 919 Level Houston Center
Mon 04:35:08 PM 30.4397 -98.4881 283° West 337 388 16,900 1,935 Climbing Houston Center
Mon 04:36:10 PM 30.5081 -98.5497 322° Northwest 319 367 19,000 1,645 Climbing Houston Center
Mon 04:37:00 PM 31.0262 -98.3899 332° Northwest  Level Estimated
Mon 04:37:12 PM 30.5906 -98.6028 331° Northwest 331 381 20,300  Level Houston Center
Mon 04:38:14 PM 30.6822 -98.6625 331° Northwest 361 415 22,200 1,440 Climbing Houston Center
Mon 04:39:17 PM 30.7706 -98.7208 330° Northwest 361 415 23,300 1,248 Climbing Houston Center
Mon 04:40:19 PM 30.8664 -98.7842 330° Northwest 383 441 24,800 1,355 Climbing Houston Center
Mon 04:41:21 PM 30.9639 -98.8469 331° Northwest 392 451 26,100 1,258 Climbing Houston Center
Mon 04:42:23 PM 31.0883 -98.8983 341° North 411 473 27,400 1,210 Climbing Houston Center
Mon 04:43:25 PM 31.2114 -98.8808 North 437 503 28,600 1,119 Climbing Houston Center
Mon 04:46:00 PM 31.4201 -99.0269 328° Northwest  Level FlightAware Approximate
Mon 04:46:51 PM 31.5703 -99.0347 328° Northwest 414 476 32,400  Level Fort Worth Center
Mon 04:47:51 PM 31.6778 -99.1050 331° Northwest 414 476 33,600 1,050 Climbing Fort Worth Center
Mon 04:48:51 PM 31.7750 -99.1728 329° Northwest 409 471 34,500 843 Climbing Fort Worth Center
Mon 04:49:52 PM 31.8742 -99.2433 329° Northwest 409 471 35,300 982 Climbing Fort Worth Center
Mon 04:51:00 PM 31.9882 -99.3127 329° Northwest  Level Estimated
Mon 04:51:42 PM 32.0556 -99.3661 329° Northwest 406 467 37,300  Level Houston Center
Mon 04:53:00 PM 32.1712 -99.4367 331° Northwest  Level Estimated
Mon 04:54:49 PM 32.3444 -99.5706 330° Northwest 405 466 38,000  Level Houston Center
Mon 04:55:51 PM 32.4564 -99.6514 329° Northwest 404 465 38,000  Level Fort Worth Center
Mon 04:56:52 PM 32.5575 -99.7206 330° Northwest 409 471 38,000  Level Fort Worth Center
Mon 04:57:51 PM 32.6625 -99.7972 328° Northwest 420 483 38,000  Level Fort Worth Center
Mon 04:58:51 PM 32.7653 -99.8717 329° Northwest 433 498 38,000  Level Fort Worth Center
Mon 05:00:00 PM 32.8218 -99.9766 330° Northwest  Level FlightAware Approximate
Mon 05:00:00 PM 32.8684 -99.9662 322° Northwest  Level FlightAware Approximate
Mon 05:01:51 PM 33.0678 -100.0881 330° Northwest 435 501 38,000  Level Fort Worth Center
Mon 05:03:00 PM 33.1785 -100.1699 328° Northwest  Level FlightAware Approximate
Mon 05:03:51 PM 33.2711 -100.2358 328° Northwest 425 489 38,000  Level Fort Worth Center
Mon 05:04:51 PM 33.3739 -100.3114 328° Northwest 425 489 38,000  Level Fort Worth Center
Mon 05:06:51 PM 33.5789 -100.4603 329° Northwest 425 489 38,000  Level Fort Worth Center
Mon 05:07:00 PM 33.5378 -100.4764 330° Northwest  Level FlightAware Approximate
Mon 05:07:52 PM 33.6814 -100.5336 329° Northwest 425 489 38,000  Level Fort Worth Center
Mon 05:09:34 PM 33.8547 -100.6600 329° Northwest 432 497 38,000  Level Albuquerque Center
Mon 05:11:00 PM 33.9916 -100.7667 327° Northwest  Level FlightAware Approximate
Mon 05:11:37 PM 34.0814 -100.8272 327° Northwest 435 501 38,000  Level Albuquerque Center
Mon 05:11:52 PM 34.1053 -100.8447 329° Northwest 425 489 38,000  Level Fort Worth Center
Mon 05:12:51 PM 34.2075 -100.9192 329° Northwest 425 489 38,000  Level Fort Worth Center
Mon 05:14:43 PM 34.3919 -101.0567 328° Northwest 436 502 38,000  Level Albuquerque Center
Mon 05:15:45 PM 34.4944 -101.1339 328° Northwest 435 501 38,000  Level Albuquerque Center
Mon 05:16:47 PM 34.5981 -101.2117 328° Northwest 436 502 38,000  Level Albuquerque Center
Mon 05:17:48 PM 34.7006 -101.2894 328° Northwest 436 502 38,000  Level Albuquerque Center
Mon 05:18:50 PM 34.8242 -101.3844 328° Northwest 437 503 38,000  Level Albuquerque Center
Mon 05:19:52 PM 34.9283 -101.4628 328° Northwest 439 505 38,000  Level Albuquerque Center
Mon 05:20:54 PM 35.0383 -101.5456 328° Northwest 444 511 38,000  Level Albuquerque Center
Mon 05:21:56 PM 35.1433 -101.6264 328° Northwest 444 511 38,000  Level Albuquerque Center
Mon 05:24:00 PM 35.3703 -101.7583 335° Northwest 452 520 38,000 -292 Level Albuquerque Center
Mon 05:25:01 PM 35.4878 -101.8156 338° Northwest 452 520 37,100 -486 Descending Albuquerque Center
Mon 05:27:00 PM 35.6980 -101.9106 340° North  Level FlightAware Approximate
Mon 05:28:07 PM 35.8494 -101.9828 340° North 457 526 36,000  Level Albuquerque Center
Mon 05:30:10 PM 36.1131 -102.1047 340° North 460 529 36,000  Level Albuquerque Center
Mon 05:31:12 PM 36.2336 -102.1628 339° North 463 533 36,000  Level Albuquerque Center
Mon 05:32:14 PM 36.3542 -102.2197 339° North 464 534 36,000  Level Albuquerque Center
Mon 05:33:16 PM 36.4744 -102.2758 339° North 463 533 36,000  Level Albuquerque Center
Mon 05:34:17 PM 36.5953 -102.3328 339° North 464 534 36,000  Level Albuquerque Center
Mon 05:35:19 PM 36.7158 -102.3917 339° North 465 535 36,000  Level Albuquerque Center
Mon 05:36:21 PM 36.8603 -102.4594 339° North 463 533 36,000  Level Albuquerque Center
Mon 05:37:22 PM 36.9875 -102.5217 339° North 466 536 36,000  Level Albuquerque Center
Mon 05:38:24 PM 37.0953 -102.5742 339° North 464 534 36,000  Level Albuquerque Center
Mon 05:40:13 PM 37.3264 -102.6861 339° North 467 537 36,000  Level Denver Center
Mon 05:41:15 PM 37.4425 -102.7417 339° North 468 539 36,000  Level Denver Center
Mon 05:43:19 PM 37.7033 -102.8367 344° North 473 544 36,000  Level Denver Center
Mon 05:45:22 PM 37.9647 -102.9211 346° North 470 541 36,000  Level Denver Center
Mon 05:46:24 PM 38.0819 -103.0025 331° Northwest 459 528 36,000  Level Denver Center
Mon 05:48:28 PM 38.2836 -103.1800 325° Northwest 449 517 36,000 -486 Level Denver Center
Mon 05:50:00 PM 38.4258 -103.3111 North  Level Estimated
Mon 05:50:31 PM 38.5083 -103.3753 North 453 521 34,000  Level Denver Center
Mon 05:51:33 PM 38.6139 -103.4692 325° Northwest 460 529 32,000 -1,935 Descending Denver Center
Mon 05:52:35 PM 38.7108 -103.5558 325° Northwest 446 513 30,000 -1,935 Descending Denver Center
Mon 05:54:00 PM 38.8410 -103.6799 311° West  Level Estimated
Mon 05:54:39 PM 38.9122 -103.7344 311° West 417 480 26,000  Level Denver Center
Mon 05:56:00 PM 39.0526 -103.8219 303° West  Level FlightAware Approximate
Mon 05:56:42 PM 39.0958 -103.8992 303° West 391 450 22,300  Level Denver Center
Mon 05:58:00 PM 39.1968 -104.0369 311° West  Level FlightAware Approximate
Mon 05:58:46 PM 39.2328 -104.0836 311° West 346 398 19,100  Level Denver Center
Mon 05:59:48 PM 39.2764 -104.1975 296° West 324 373 17,500 -1,500 Descending Denver Center
Mon 06:00:50 PM 39.2994 -104.3017 286° West 285 328 16,000 -1,366 Descending Denver Center
Mon 06:01:51 PM 39.3217 -104.3958 287° West 280 322 14,700 -1,317 Descending Denver Center
Mon 06:02:53 PM 39.3653 -104.4900 301° West 283 326 13,300 -1,306 Descending Denver Center
Mon 06:03:55 PM 39.4142 -104.5722 308° West 292 336 12,000 -1,005 Descending Denver Center
Mon 06:05:58 PM 39.5500 -104.6639 333° Northwest 263 303 10,200 -778 Descending Denver Center
Mon 06:07:00 PM 39.6217 -104.6631 North 259 298 9,600 -919 Descending Denver Center
Mon 06:08:02 PM 39.6911 -104.6619 North 218 251 8,300 -1,258 Descending Denver Center
Mon 06:09:04 PM 39.7497 -104.6608 North 210 242 7,000 -1,065 Descending Denver Center
Mon 06:10:06 PM 39.7931 -104.6614 359° North 152 175 6,100 -780 Descending Denver Center
Mon 06:11:07 PM 39.8339 -104.6606 North 148 170 5,400 -689 Descending Denver Center
Mon 06:13:00 PM 39.8500 -104.6667 North  Level FlightAware Approximate

Login

Don't have an account? Register now (free) for customized features, flight alerts, and more!